YSWG/WGA METAR and TAF weather

Enter ICAO airport designator
Station Type Date Time Source
YSWG METAR 2022/06/28 05:51 UTC NOAA

YSWG 280551Z AUTO 00000KT 9999 // NCD 13/02 Q1029


Station Type Date Time Source
YSWG Decoded METAR 2022/06/28 05:51 UTC NOAA

Wagga Airport, Australia (YSWG) 35-09S 147-27E 213M
Jun 28, 2022 - 01:51 AM EDT / 2022.06.28 0551 UTC
Wind: Calm:0
Visibility: greater than 7 mile(s):0
Temperature: 55 F (13 C)
Dew Point: 35 F (2 C)
Relative Humidity: 47%
Pressure (altimeter): 30.39 in. Hg (1029 hPa)
ob: YSWG 280551Z AUTO 00000KT 9999 // NCD 13/02 Q1029
cycle: 6

Station Type Date Time Source
YSWG TAF 2018/05/25 18:03 UTC NOAA

TAF YSWG 251649Z 2518/2608 07008KT CAVOK

Example: see airport list